Terminal Aerodrome Forecast
Issued by NWS

Home | Current Version | Previous Version | Graphics & Text | Print | Product List | Glossary On
Versions: 1 2 3 4 5 6 7 8 9 10 11 12 13 14 15 16 17 18 19
000
FTUS43 KGRB 261100 AAA
TAFCWA
TAF AMD
KCWA 261112Z 2611/2706 23004KT 5SM BR BKN006
     FM261400 29008KT P6SM SCT006 SCT025
      AMD LTD TO CLD VIS AND WIND TIL 261200=

USA.gov is the U.S. government's official web portal to all federal, state and local government web resources and services.